createdAt,value
2022-12-03T01:45:34.028Z,97486.03
2022-12-03T01:48:02.569Z,97487.78
2022-12-03T02:01:14.945Z,97477.41
2022-12-03T02:03:41.837Z,97477.41
2022-12-03T02:22:53.620Z,97473.19
2022-12-03T02:27:55.672Z,97474.34
2022-12-03T02:30:23.072Z,97475.88
2022-12-03T02:32:50.126Z,97480.94
2022-12-03T02:35:18.296Z,97480.31
2022-12-03T02:40:24.830Z,97478.34
2022-12-03T02:45:45.046Z,97479.84
2022-12-03T02:53:47.453Z,97455.28
2022-12-03T03:18:46.359Z,97460.56
2022-12-03T03:28:23.865Z,97453.94
2022-12-03T03:41:41.856Z,97452.16
2022-12-03T03:55:14.606Z,97448.97
2022-12-03T05:26:26.562Z,97404.69
2022-12-03T05:48:35.668Z,97393.56
2022-12-03T05:51:02.376Z,97397.81
2022-12-03T06:01:34.598Z,97405.50
2022-12-03T06:04:01.402Z,97395.16
2022-12-03T06:06:28.161Z,97403.53
2022-12-03T06:23:17.752Z,97399.66
2022-12-03T06:36:47.104Z,97394.38
2022-12-03T06:46:25.734Z,97400.38
2022-12-03T06:48:55.094Z,97404.75
2022-12-03T06:59:56.992Z,97398.63
2022-12-03T07:02:25.116Z,97399.66
2022-12-03T07:04:51.890Z,97404.13
2022-12-03T07:38:13.604Z,97410.25
2022-12-03T07:40:40.326Z,97409.53
2022-12-03T07:43:07.113Z,97407.91
2022-12-03T07:45:41.405Z,97410.16
2022-12-03T07:48:08.361Z,97405.69
2022-12-03T07:56:08.649Z,97413.44
2022-12-03T07:58:35.504Z,97409.81
2022-12-03T08:09:16.439Z,97399.56
2022-12-03T08:11:45.373Z,97397.41
2022-12-03T08:14:15.548Z,97406.84
2022-12-03T08:16:44.893Z,97400.94
2022-12-03T08:22:01.107Z,97406.84
2022-12-03T08:24:29.430Z,97402.25
2022-12-03T08:32:23.016Z,97407.47
2022-12-03T08:37:34.122Z,97410.13
2022-12-03T09:04:32.321Z,97416.38
2022-12-03T09:09:47.632Z,97418.38
2022-12-03T09:15:28.881Z,97416.38
2022-12-03T09:17:55.661Z,97418.09
2022-12-03T09:29:12.055Z,97424.09
2022-12-03T09:32:04.412Z,97418.34
2022-12-03T09:40:02.924Z,97406.69
2022-12-03T09:42:29.495Z,97416.25
2022-12-03T09:45:17.941Z,97406.84
2022-12-03T09:47:46.103Z,97408.03
2022-12-03T09:50:17.251Z,97405.88
2022-12-03T09:52:45.248Z,97401.41
2022-12-03T09:55:12.973Z,97393.41
2022-12-03T09:57:39.478Z,97395.19
2022-12-03T10:00:24.336Z,97387.13
2022-12-03T10:02:51.874Z,97385.63
2022-12-03T10:05:21.583Z,97380.69
2022-12-03T10:07:51.138Z,97383.50
2022-12-03T10:10:18.602Z,97379.97
2022-12-03T10:12:45.113Z,97377.63
2022-12-03T10:15:15.477Z,97379.22
2022-12-03T10:17:42.048Z,97380.56
2022-12-03T10:20:11.145Z,97376.44
2022-12-03T10:22:37.688Z,97371.03
2022-12-03T10:25:06.452Z,97365.16
2022-12-03T10:27:33.017Z,97364.69
2022-12-03T10:30:00.406Z,97366.94
2022-12-03T10:32:44.009Z,97353.53
2022-12-03T10:35:20.815Z,97352.53
2022-12-03T10:37:59.594Z,97346.53
2022-12-03T10:40:27.438Z,97348.66
2022-12-03T10:42:56.420Z,97350.06
2022-12-03T10:45:23.088Z,97351.03
2022-12-03T10:48:06.502Z,97351.25
2022-12-03T10:50:33.229Z,97335.47
2022-12-03T10:52:59.728Z,97336.81
2022-12-03T10:55:26.164Z,97327.41
2022-12-03T10:57:52.723Z,97330.94
2022-12-03T11:00:19.691Z,97331.69
2022-12-03T11:02:49.407Z,97322.47
2022-12-03T11:05:26.847Z,97319.66
2022-12-03T11:07:53.477Z,97318.25
2022-12-03T11:10:20.334Z,97316.13
2022-12-03T11:13:05.712Z,97311.88
2022-12-03T11:15:42.344Z,97317.06
2022-12-03T11:18:08.839Z,97319.91
2022-12-03T11:20:35.353Z,97319.66
2022-12-03T11:23:01.899Z,97319.28
2022-12-03T11:25:28.386Z,97323.44
2022-12-03T11:28:13.360Z,97317.97
2022-12-03T11:30:49.062Z,97322.13
2022-12-03T11:33:31.003Z,97315.50
2022-12-03T11:36:03.712Z,97313.97
2022-12-03T11:38:41.086Z,97309.97
2022-12-03T11:41:07.535Z,97310.44
2022-12-03T11:43:52.521Z,97301.56
2022-12-03T11:46:19.706Z,97301.81
2022-12-03T11:48:46.419Z,97308.28
2022-12-03T11:51:13.907Z,97294.38
2022-12-03T11:53:40.435Z,97287.06
2022-12-03T11:56:08.614Z,97288.28
2022-12-03T11:58:35.663Z,97281.94
2022-12-03T12:01:03.532Z,97282.97
2022-12-03T12:03:33.442Z,97284.03
2022-12-03T12:06:07.458Z,97273.53
2022-12-03T12:08:34.701Z,97286.38
2022-12-03T12:11:01.504Z,97275.66
2022-12-03T12:13:28.102Z,97268.34
2022-12-03T12:15:54.968Z,97262.78
2022-12-03T12:18:41.223Z,97258.06
2022-12-03T12:21:26.644Z,97257.34
2022-12-03T12:23:53.271Z,97258.31
2022-12-03T12:26:19.828Z,97263.72
2022-12-03T12:28:46.419Z,97265.72
2022-12-03T12:31:13.007Z,97259.84
2022-12-03T12:33:39.557Z,97245.09
2022-12-03T12:36:08.579Z,97251.81
2022-12-03T12:38:35.061Z,97249.66
2022-12-03T12:41:04.300Z,97242.19
2022-12-03T12:43:32.709Z,97244.56
2022-12-03T12:46:13.538Z,97242.13
2022-12-03T12:48:46.878Z,97242.50
2022-12-03T12:51:14.557Z,97239.31
2022-12-03T12:53:43.007Z,97246.28
2022-12-03T12:56:26.439Z,97236.97
2022-12-03T12:58:53.436Z,97248.16
2022-12-03T13:01:30.220Z,97238.03
2022-12-03T13:03:56.954Z,97237.09
2022-12-03T13:06:27.611Z,97230.94
2022-12-03T13:08:54.219Z,97233.31
2022-12-03T13:11:38.875Z,97229.31
2022-12-03T13:14:11.446Z,97229.66
2022-12-03T13:16:38.333Z,97227.19
2022-12-03T13:19:12.266Z,97219.88
2022-12-03T13:21:39.761Z,97224.09
2022-12-03T13:24:25.098Z,97219.03
2022-12-03T13:26:51.753Z,97216.22
2022-12-03T13:29:18.796Z,97209.97
2022-12-03T13:31:56.072Z,97213.16
2022-12-03T13:34:23.963Z,97218.09
2022-12-03T13:36:57.537Z,97206.66
2022-12-03T13:39:30.335Z,97209.94
2022-12-03T13:42:15.823Z,97207.72
2022-12-03T13:44:46.147Z,97202.19
2022-12-03T13:47:14.132Z,97209.03
2022-12-03T13:49:40.616Z,97193.47
2022-12-03T13:52:11.163Z,97196.06
2022-12-03T13:54:39.405Z,97196.06
2022-12-03T13:57:06.863Z,97190.41
2022-12-03T13:59:33.386Z,97198.78
2022-12-03T14:02:00.157Z,97202.31
2022-12-03T14:04:26.885Z,97203.00
2022-12-03T14:06:53.563Z,97200.78
2022-12-03T14:09:20.228Z,97198.66
2022-12-03T14:12:05.372Z,97197.94
2022-12-03T14:14:31.933Z,97203.38
2022-12-03T14:17:00.264Z,97201.94
2022-12-03T14:19:27.052Z,97194.97
2022-12-03T14:21:53.644Z,97189.47
2022-12-03T14:24:20.333Z,97196.19
2022-12-03T14:26:46.986Z,97189.22
2022-12-03T14:29:13.752Z,97180.97
2022-12-03T14:31:40.438Z,97188.25
2022-12-03T14:34:07.144Z,97184.75
2022-12-03T14:36:33.820Z,97181.22
2022-12-03T14:39:00.489Z,97180.28
2022-12-03T14:41:45.819Z,97183.31
2022-12-03T14:44:12.544Z,97180.72
2022-12-03T14:46:39.184Z,97180.84
2022-12-03T14:49:05.672Z,97183.31
2022-12-03T14:51:32.223Z,97180.72
2022-12-03T14:53:58.873Z,97186.16
2022-12-03T14:56:25.620Z,97185.22
2022-12-03T14:58:52.343Z,97183.81
2022-12-03T15:01:19.168Z,97188.53
2022-12-03T15:03:45.778Z,97182.03
2022-12-03T15:06:12.457Z,97184.72
2022-12-03T15:08:39.107Z,97182.50
2022-12-03T15:11:05.943Z,97183.31
2022-12-03T15:13:32.827Z,97180.63
2022-12-03T15:15:59.719Z,97178.13
2022-12-03T15:18:26.500Z,97183.09
2022-12-03T15:20:53.139Z,97183.09
2022-12-03T15:23:19.720Z,97177.56
2022-12-03T15:25:46.970Z,97183.94
2022-12-03T15:28:13.525Z,97174.63
2022-12-03T15:30:40.121Z,97188.16
2022-12-03T15:33:06.814Z,97186.84
2022-12-03T15:35:33.883Z,97181.44
2022-12-03T15:38:00.737Z,97182.41
2022-12-03T15:40:27.904Z,97182.59
2022-12-03T15:42:54.723Z,97179.06
2022-12-03T15:45:21.492Z,97181.56
2022-12-03T15:47:48.114Z,97180.84
2022-12-03T15:50:14.883Z,97181.44
2022-12-03T15:52:41.673Z,97174.59
2022-12-03T15:55:08.739Z,97176.47
2022-12-03T15:57:35.450Z,97181.44
2022-12-03T16:00:02.225Z,97171.88
2022-12-03T16:02:33.886Z,97173.66
2022-12-03T16:05:01.247Z,97177.06
2022-12-03T16:07:28.306Z,97177.91
2022-12-03T16:09:55.939Z,97176.25
2022-12-03T16:12:23.295Z,97181.44
2022-12-03T16:14:50.303Z,97187.09
2022-12-03T16:17:17.063Z,97181.19
2022-12-03T16:19:43.834Z,97185.31
2022-12-03T16:22:10.625Z,97180.25
2022-12-03T16:24:37.246Z,97186.38
2022-12-03T16:27:04.076Z,97191.31
2022-12-03T16:29:31.027Z,97191.44
2022-12-03T16:31:58.017Z,97186.38
2022-12-03T16:34:24.713Z,97190.50
2022-12-03T16:36:51.402Z,97187.09
2022-12-03T16:39:18.142Z,97182.84
2022-12-03T16:41:44.786Z,97179.53
2022-12-03T16:44:30.719Z,97184.72
2022-12-03T16:46:57.365Z,97180.38
2022-12-03T16:49:24.253Z,97184.97
2022-12-03T16:51:51.121Z,97181.44
2022-12-03T16:54:17.907Z,97188.13
2022-12-03T16:56:44.700Z,97176.00
2022-12-03T16:59:11.511Z,97182.25
2022-12-03T17:01:47.412Z,97182.50
2022-12-03T17:04:14.355Z,97182.00
2022-12-03T17:06:41.240Z,97167.53
2022-12-03T17:09:08.088Z,97172.72
2022-12-03T17:11:35.320Z,97168.69
2022-12-03T17:14:02.248Z,97174.13
2022-12-03T17:16:29.219Z,97177.78
2022-12-03T17:18:56.162Z,97170.81
2022-12-03T17:21:22.946Z,97169.06
2022-12-03T17:23:51.819Z,97172.72
2022-12-03T17:30:14.720Z,97171.06
2022-12-03T17:32:41.598Z,97169.53
2022-12-03T17:35:08.661Z,97172.13
2022-12-03T17:37:35.306Z,97175.66
2022-12-03T17:40:02.760Z,97169.66
2022-12-03T17:42:29.556Z,97162.81
2022-12-03T17:44:56.422Z,97170.72
2022-12-03T17:47:23.154Z,97161.16
2022-12-03T17:49:49.766Z,97161.03
2022-12-03T17:52:16.555Z,97157.63
2022-12-03T17:55:09.276Z,97158.47
2022-12-03T17:57:30.177Z,97153.28
2022-12-03T17:59:57.421Z,97157.41
2022-12-03T18:02:24.432Z,97159.16
2022-12-03T18:04:51.353Z,97157.41
2022-12-03T18:07:18.225Z,97152.22
2022-12-03T18:09:45.669Z,97154.09
2022-12-03T18:12:13.038Z,97149.84
2022-12-03T18:14:39.992Z,97150.81
2022-12-03T18:17:06.829Z,97153.50
2022-12-03T18:19:33.581Z,97156.22
2022-12-03T18:22:00.450Z,97151.88
2022-12-03T18:24:27.431Z,97149.75
2022-12-03T18:27:03.681Z,97149.84
2022-12-03T18:29:32.803Z,97149.75
2022-12-03T18:32:04.257Z,97151.63
2022-12-03T18:34:32.442Z,97139.59
2022-12-03T18:37:09.410Z,97148.09
2022-12-03T18:39:49.115Z,97141.25
2022-12-03T18:42:17.971Z,97139.50
2022-12-03T18:44:53.462Z,97135.50
2022-12-03T18:50:07.620Z,97138.16
2022-12-03T18:52:34.987Z,97132.16
2022-12-03T18:55:07.129Z,97133.22
2022-12-03T18:57:36.183Z,97133.47
2022-12-03T19:00:11.935Z,97124.97
2022-12-03T19:05:33.916Z,97130.75
2022-12-03T19:08:02.218Z,97122.16
2022-12-03T19:10:31.760Z,97127.22
2022-12-03T19:13:02.128Z,97124.88
2022-12-03T19:15:30.623Z,97134.16
2022-12-03T19:21:57.104Z,97134.28
2022-12-03T19:24:25.622Z,97132.41
2022-12-03T19:26:56.603Z,97128.16
2022-12-03T19:29:25.425Z,97129.69
2022-12-03T19:31:53.271Z,97128.88
2022-12-03T19:34:21.516Z,97129.56
2022-12-03T19:36:49.715Z,97134.75
2022-12-03T19:39:19.100Z,97139.94
2022-12-03T19:41:46.022Z,97128.63
2022-12-03T19:44:17.700Z,97134.75
2022-12-03T19:46:45.301Z,97135.94
2022-12-03T19:49:21.409Z,97139.22
2022-12-03T19:51:50.154Z,97139.00
2022-12-03T19:54:17.089Z,97140.88
2022-12-03T19:56:48.036Z,97134.88
2022-12-03T19:59:15.505Z,97136.41
2022-12-03T20:01:47.132Z,97136.19
2022-12-03T20:04:14.805Z,97138.78
2022-12-03T20:06:42.268Z,97144.19
2022-12-03T20:09:12.112Z,97134.66
2022-12-03T20:11:42.221Z,97132.41
2022-12-03T20:14:18.298Z,97133.09
2022-12-03T20:16:47.498Z,97137.47
2022-12-03T20:19:15.523Z,97143.72
2022-12-03T20:21:42.489Z,97136.63
2022-12-03T20:24:10.687Z,97142.06
2022-12-03T20:26:40.811Z,97130.16
2022-12-03T20:29:10.016Z,97148.19
2022-12-03T20:31:37.348Z,97149.00
2022-12-03T20:34:04.663Z,97143.13
2022-12-03T20:36:37.057Z,97151.59
2022-12-03T20:39:05.453Z,97147.25
2022-12-03T20:41:35.155Z,97148.19
2022-12-03T20:44:03.553Z,97141.34
2022-12-03T20:46:32.248Z,97142.28
2022-12-03T20:48:59.224Z,97142.28
2022-12-03T20:51:27.870Z,97132.28
2022-12-03T20:53:54.654Z,97133.34
2022-12-03T20:56:26.142Z,97129.09
2022-12-03T20:58:53.656Z,97123.22
2022-12-03T21:01:22.569Z,97118.84
2022-12-03T21:03:50.215Z,97125.81
2022-12-03T21:06:17.834Z,97123.34
2022-12-03T21:08:45.183Z,97118.03
2022-12-03T21:11:16.675Z,97123.34
2022-12-03T21:13:44.192Z,97120.84
2022-12-03T21:16:14.543Z,97114.03
2022-12-03T21:18:42.161Z,97117.81
2022-12-03T21:21:09.541Z,97115.53
2022-12-03T21:23:36.931Z,97111.53
2022-12-03T21:26:28.028Z,97116.84
2022-12-03T21:28:58.016Z,97115.53
2022-12-03T21:31:26.824Z,97117.19
2022-12-03T21:33:57.482Z,97109.31
2022-12-03T21:36:25.289Z,97112.81
2022-12-03T21:38:55.091Z,97108.59
2022-12-03T21:41:21.884Z,97107.66
2022-12-03T21:43:48.861Z,97110.97
2022-12-03T21:47:11.700Z,97109.31
2022-12-03T21:49:05.925Z,97112.75
2022-12-03T21:51:32.866Z,97111.28
2022-12-03T21:54:03.654Z,97106.13
2022-12-03T21:56:31.962Z,97110.47
2022-12-03T21:58:59.204Z,97105.28
2022-12-03T22:01:26.873Z,97096.69
2022-12-03T22:03:58.947Z,97101.28
2022-12-03T22:06:25.858Z,97105.06
2022-12-03T22:08:55.011Z,97102.94
2022-12-03T22:11:25.629Z,97104.59
2022-12-03T22:13:55.450Z,97096.56
2022-12-03T22:16:23.024Z,97097.53
2022-12-03T22:18:50.318Z,97094.94
2022-12-03T22:21:18.578Z,97093.28
2022-12-03T22:23:45.693Z,97104.94
2022-12-03T22:26:14.485Z,97102.81
2022-12-03T22:28:49.075Z,97095.88
2022-12-03T22:31:16.320Z,97093.28
2022-12-03T22:33:46.309Z,97093.16
2022-12-03T22:36:20.011Z,97092.34
2022-12-03T22:38:47.754Z,97084.44
2022-12-03T22:41:14.945Z,97088.81
2022-12-03T22:43:42.856Z,97088.81
2022-12-03T22:46:13.052Z,97086.91
2022-12-03T22:48:40.787Z,97074.91
2022-12-03T22:51:14.451Z,97074.31
2022-12-03T22:53:41.346Z,97071.63
2022-12-03T22:56:08.374Z,97075.63
2022-12-03T22:58:35.270Z,97074.91
2022-12-03T23:01:03.048Z,97079.03
2022-12-03T23:03:30.237Z,97077.50
2022-12-03T23:05:57.276Z,97075.03
2022-12-03T23:08:24.411Z,97067.72
2022-12-03T23:10:52.400Z,97064.44
2022-12-03T23:13:19.964Z,97068.56
2022-12-03T23:15:47.601Z,97073.75
2022-12-03T23:18:14.413Z,97069.28
2022-12-03T23:20:42.430Z,97066.88
2022-12-03T23:23:09.637Z,97051.81
2022-12-03T23:25:37.415Z,97066.69
2022-12-03T23:28:04.507Z,97059.72
2022-12-03T23:30:31.390Z,97057.72
2022-12-03T23:33:07.534Z,97065.50
2022-12-03T23:35:43.407Z,97058.66
2022-12-03T23:38:11.006Z,97065.63
2022-12-03T23:40:37.487Z,97063.63
2022-12-03T23:43:04.011Z,97061.59
2022-12-03T23:45:31.874Z,97055.13
2022-12-03T23:47:58.538Z,97056.06
2022-12-03T23:50:25.494Z,97058.19
2022-12-03T23:52:52.020Z,97061.94
2022-12-03T23:55:18.654Z,97059.84
2022-12-03T23:57:45.163Z,97053.84
